This is the latest recevied weather packets stored in our database for station/object DC4XK-10. If no packets are shown the sender has not sent any weather packets the latest 10 day(s).
| Time | Temp. | Humidity | Pressure | Rain* | Wind** | Luminosity | Snow |
|---|---|---|---|---|---|---|---|
| 1777691331 | 10.56° C | 75% | 1019.2 hPa | 0 mm | 0 m/s | - | - |
| 1777690730 | 10.56° C | 75% | 1019.3 hPa | 0 mm | 0 m/s | - | - |
| 1777690130 | 10.56° C | 75% | 1019.2 hPa | 0 mm | 0 m/s | - | - |
| 1777688931 | 11.11° C | 74% | 1019.7 hPa | 0 mm | 0 m/s | - | - |
| 1777688330 | 10.56° C | 74% | 1019.6 hPa | 0 mm | 0 m/s | - | - |
| 1777687731 | 10.56° C | 74% | 1019.8 hPa | 0 mm | 0 m/s | - | - |
| 1777672731 | 11.67° C | 79% | 1021.6 hPa | 0 mm | 0 m/s | - | - |
| 1777671531 | 12.22° C | 78% | 1021.6 hPa | 0 mm | 0 m/s | - | - |
| 1777670931 | 12.22° C | 77% | 1021.7 hPa | 0 mm | 0 m/s | - | - |
| 1777669731 | 11.11° C | 81% | 1021.8 hPa | 0 mm | 0 m/s | - | - |
| 1777669131 | 11.11° C | 80% | 1022.2 hPa | 0 mm | 0 m/s | - | - |
| 1777667930 | 11.67° C | 78% | 1022 hPa | 0 mm | 0 m/s | - | - |
| 1777666733 | 11.67° C | 76% | 1022.3 hPa | 0 mm | 0 m/s | - | - |
| 1777665531 | 11.67° C | 76% | 1022.5 hPa | 0 mm | 0 m/s | - | - |
| 1777663731 | 12.78° C | 71% | 1022.4 hPa | 0 mm | 0 m/s | - | - |
| 1777662531 | 12.78° C | 69% | 1022.5 hPa | 0 mm | 0 m/s | - | - |
| 1777660731 | 14.44° C | 63% | 1022.4 hPa | 0 mm | 0 m/s | - | - |
| 1777660131 | 14.44° C | 62% | 1022.4 hPa | 0 mm | 0 m/s | - | - |
| 1777658933 | 16.11° C | 60% | 1022.6 hPa | 0 mm | 0 m/s | - | - |
| 1777658332 | 16.67° C | 58% | 1022.5 hPa | 0 mm | 0 m/s | - | - |
| 1777656533 | 18.33° C | 53% | 1022.5 hPa | 0 mm | 0 m/s | - | - |
| 1777655330 | 18.89° C | 51% | 1022.9 hPa | 0 mm | 0 m/s | - | - |
| 1777653530 | 20.56° C | 52% | 1023.4 hPa | 0 mm | 0 m/s | - | - |
| 1777652932 | 20.56° C | 51% | 1023.6 hPa | 0 mm | 0.45 m/s, 107° | - | - |
| 1777652331 | 21.11° C | 51% | 1023.5 hPa | 0 mm | 0 m/s | - | - |
* Rain latest hour (hover to see other rain measurements)
** Current wind speed in m/s (hover to see current wind gust speed)